Time;durP1;ratioP1;P1;durP2;ratioP2;P2;SDS_P1;SDS_P2;PMS_P1;PMS_P2;Temp;Humidity;BMP_temperature;BMP_pressure;BME280_temperature;BME280_humidity;BME280_pressure;Samples;Min_cycle;Max_cycle;Signal;HPM_P1;HPM_P2
2021/05/03 00:02:10;;;;;;;15.68;6.63;;;4.10;99.90;;;;;;5106836;28;20027;-50
2021/05/03 00:04:36;;;;;;;12.68;6.63;;;4.20;99.90;;;;;;5099727;28;20036;-50
2021/05/03 00:07:01;;;;;;;14.52;5.78;;;4.10;99.90;;;;;;5106713;28;20063;-51
2021/05/03 00:09:27;;;;;;;8.95;5.53;;;4.10;99.90;;;;;;5098870;28;20509;-52
2021/05/03 00:11:52;;;;;;;15.38;5.72;;;4.20;99.90;;;;;;5105661;28;20027;-49
2021/05/03 00:14:18;;;;;;;10.18;6.18;;;4.20;99.90;;;;;;5108216;28;20501;-52
2021/05/03 00:16:43;;;;;;;9.23;5.10;;;4.20;99.90;;;;;;5108304;28;20034;-50
2021/05/03 00:19:09;;;;;;;10.95;5.38;;;4.30;99.90;;;;;;5108063;28;20031;-50
2021/05/03 00:21:35;;;;;;;8.93;5.18;;;4.40;99.90;;;;;;5109261;28;20397;-49
2021/05/03 00:24:00;;;;;;;17.40;6.43;;;4.40;99.90;;;;;;5108361;28;20413;-50
2021/05/03 00:26:26;;;;;;;10.73;5.03;;;4.40;99.90;;;;;;5099243;28;20034;-51
2021/05/03 00:28:52;;;;;;;13.93;4.95;;;4.40;99.90;;;;;;5105528;28;20443;-49
2021/05/03 00:31:18;;;;;;;8.68;5.32;;;4.40;99.90;;;;;;5108507;28;20038;-50
2021/05/03 00:33:43;;;;;;;11.10;5.40;;;4.40;99.90;;;;;;5101518;28;20024;-50
2021/05/03 00:36:09;;;;;;;9.02;5.55;;;4.40;99.90;;;;;;5103298;28;20528;-49
2021/05/03 00:38:34;;;;;;;11.07;5.68;;;4.40;99.90;;;;;;5107969;28;20390;-49
2021/05/03 00:41:01;;;;;;;10.88;5.75;;;4.50;99.90;;;;;;5110486;28;20027;-50
2021/05/03 00:43:27;;;;;;;8.70;4.85;;;4.50;99.90;;;;;;5097508;28;20024;-53
2021/05/03 00:45:53;;;;;;;11.10;5.20;;;4.60;99.90;;;;;;5106463;28;20062;-50
2021/05/03 00:48:21;;;;;;;9.23;5.05;;;4.60;99.90;;;;;;5104790;28;20059;-50
2021/05/03 00:50:48;;;;;;;12.30;5.80;;;4.60;99.90;;;;;;5107763;28;20031;-53
2021/05/03 00:53:13;;;;;;;14.15;5.10;;;4.60;99.90;;;;;;5106807;28;20412;-49
2021/05/03 00:55:40;;;;;;;9.45;4.80;;;4.60;99.90;;;;;;5111263;28;20028;-51
2021/05/03 00:58:06;;;;;;;12.82;5.43;;;4.50;99.90;;;;;;5101051;28;20053;-54
2021/05/03 01:00:33;;;;;;;14.27;5.25;;;4.50;99.90;;;;;;5106313;28;20036;-52
2021/05/03 01:02:59;;;;;;;12.13;5.22;;;4.50;99.90;;;;;;5101202;28;20488;-52
2021/05/03 01:05:29;;;;;;;9.52;4.82;;;4.50;99.90;;;;;;5102402;28;20039;-49
2021/05/03 01:07:58;;;;;;;7.70;5.03;;;4.40;99.90;;;;;;5112818;28;20031;-50
2021/05/03 01:10:26;;;;;;;12.18;5.47;;;4.50;99.90;;;;;;5109122;28;20035;-53
2021/05/03 01:12:54;;;;;;;9.38;4.78;;;4.40;99.90;;;;;;5109538;28;20459;-51
2021/05/03 01:15:24;;;;;;;9.18;5.30;;;4.40;99.90;;;;;;5108191;28;20131;-50
2021/05/03 01:18:00;;;;;;;12.27;6.18;;;4.30;99.90;;;;;;5102168;28;20107;-53
2021/05/03 01:20:28;;;;;;;9.75;5.28;;;4.20;99.90;;;;;;5103413;28;20024;-49
2021/05/03 01:22:57;;;;;;;8.45;4.93;;;4.20;99.90;;;;;;5111186;28;20038;-53
2021/05/03 01:25:27;;;;;;;8.20;5.45;;;4.10;99.90;;;;;;5108042;28;20031;-49
2021/05/03 01:27:53;;;;;;;15.68;5.75;;;4.10;99.90;;;;;;5112062;28;20047;-51
2021/05/03 01:30:19;;;;;;;9.05;4.82;;;4.10;99.90;;;;;;5106992;28;20100;-50
2021/05/03 01:32:45;;;;;;;9.50;5.65;;;4.00;99.90;;;;;;5103463;28;20520;-53
2021/05/03 01:35:14;;;;;;;15.30;5.90;;;3.90;99.90;;;;;;5103238;28;20039;-50
2021/05/03 01:37:39;;;;;;;12.52;6.13;;;3.80;99.90;;;;;;5108297;28;20256;-49
2021/05/03 01:40:06;;;;;;;12.77;6.30;;;3.80;99.90;;;;;;5109970;28;20032;-49
2021/05/03 01:42:34;;;;;;;22.30;6.55;;;3.70;99.90;;;;;;5111442;28;20059;-51
2021/05/03 01:45:01;;;;;;;11.77;5.95;;;3.70;99.90;;;;;;5108533;28;20506;-48
2021/05/03 01:47:27;;;;;;;11.18;6.65;;;3.70;99.90;;;;;;5108413;28;20058;-54
2021/05/03 01:49:53;;;;;;;14.25;7.28;;;3.60;99.90;;;;;;5106167;28;20051;-49
2021/05/03 01:52:20;;;;;;;10.88;5.95;;;3.50;99.90;;;;;;5110430;28;20062;-50
2021/05/03 01:54:47;;;;;;;13.55;6.68;;;3.40;99.90;;;;;;5103512;28;20448;-53
2021/05/03 01:57:15;;;;;;;22.65;6.90;;;3.30;99.90;;;;;;5099593;28;20030;-53
2021/05/03 01:59:41;;;;;;;14.80;6.43;;;3.20;99.90;;;;;;5109644;28;20616;-51
2021/05/03 02:02:07;;;;;;;16.60;6.30;;;3.30;99.90;;;;;;5109677;28;20031;-52
2021/05/03 02:04:32;;;;;;;16.38;6.75;;;3.20;99.90;;;;;;5110173;28;20032;-51
2021/05/03 02:06:58;;;;;;;16.25;7.68;;;3.10;99.90;;;;;;5109939;28;20546;-51
2021/05/03 02:09:23;;;;;;;16.27;7.75;;;3.10;99.90;;;;;;5109796;28;20070;-50
2021/05/03 02:11:49;;;;;;;17.38;6.53;;;3.00;99.90;;;;;;5107831;28;20155;-52
2021/05/03 02:14:15;;;;;;;17.38;7.10;;;3.10;99.90;;;;;;5109794;28;20496;-52
2021/05/03 02:16:40;;;;;;;12.25;6.90;;;3.00;99.90;;;;;;5109076;28;20528;-50
2021/05/03 02:19:06;;;;;;;16.50;6.95;;;3.00;99.90;;;;;;5108634;28;20051;-50
2021/05/03 02:21:31;;;;;;;13.15;6.95;;;3.00;99.90;;;;;;5106870;28;20032;-49
2021/05/03 02:23:57;;;;;;;13.27;6.95;;;3.00;99.90;;;;;;5108660;28;20167;-49
2021/05/03 02:26:22;;;;;;;11.50;7.03;;;2.90;99.90;;;;;;5110606;27;20031;-48
2021/05/03 02:28:50;;;;;;;15.20;7.55;;;2.90;99.90;;;;;;5107095;27;20526;-50
2021/05/03 02:31:19;;;;;;;12.38;7.95;;;2.90;99.90;;;;;;5101115;28;20028;-48
2021/05/03 02:33:45;;;;;;;17.88;8.32;;;2.90;99.90;;;;;;5103002;28;20023;-49
2021/05/03 02:36:11;;;;;;;14.70;7.68;;;2.80;99.90;;;;;;5102961;27;20077;-49
2021/05/03 02:38:37;;;;;;;14.10;8.00;;;2.80;99.90;;;;;;5108632;28;20549;-49
2021/05/03 02:41:03;;;;;;;18.77;7.80;;;2.70;99.90;;;;;;5111097;28;20059;-51
2021/05/03 02:43:28;;;;;;;27.27;8.98;;;2.60;99.90;;;;;;5103887;28;20062;-53
2021/05/03 02:45:54;;;;;;;18.40;7.72;;;2.70;99.90;;;;;;5104645;28;20032;-53
2021/05/03 02:48:19;;;;;;;17.85;8.57;;;2.70;99.90;;;;;;5104657;28;20020;-48
2021/05/03 02:50:45;;;;;;;16.05;8.85;;;2.60;99.90;;;;;;5106348;28;20027;-49
2021/05/03 02:53:11;;;;;;;22.33;9.32;;;2.70;99.90;;;;;;5104006;28;20027;-50
2021/05/03 02:55:36;;;;;;;23.23;9.75;;;2.60;99.90;;;;;;5109635;28;20027;-49
2021/05/03 02:58:02;;;;;;;16.23;8.90;;;2.60;99.90;;;;;;5108096;28;20086;-50
2021/05/03 03:00:31;;;;;;;22.63;9.95;;;2.60;99.90;;;;;;5103681;28;20476;-51
2021/05/03 03:02:57;;;;;;;21.95;8.32;;;2.50;99.90;;;;;;5103357;28;20621;-49
2021/05/03 03:05:23;;;;;;;15.40;8.85;;;2.50;99.90;;;;;;5101715;28;20032;-49
2021/05/03 03:07:50;;;;;;;14.75;9.48;;;2.40;99.90;;;;;;5101186;28;20016;-49
2021/05/03 03:10:20;;;;;;;18.45;10.13;;;2.40;99.90;;;;;;5106543;28;20485;-52
2021/05/03 03:12:46;;;;;;;18.25;8.82;;;2.30;99.90;;;;;;5111928;28;20033;-50
2021/05/03 03:15:15;;;;;;;23.38;10.07;;;2.30;99.90;;;;;;5102976;27;20051;-51
2021/05/03 03:17:40;;;;;;;23.17;10.85;;;2.30;99.90;;;;;;5107178;28;20031;-52
2021/05/03 03:20:07;;;;;;;19.20;9.65;;;2.20;99.90;;;;;;5100306;28;20730;-49
2021/05/03 03:22:34;;;;;;;18.98;11.00;;;2.30;99.90;;;;;;5109548;28;20493;-49
2021/05/03 03:24:59;;;;;;;23.08;10.13;;;2.20;99.90;;;;;;5110898;28;20024;-50
2021/05/03 03:27:25;;;;;;;22.70;10.07;;;2.10;99.90;;;;;;5104591;27;20111;-50
2021/05/03 03:29:51;;;;;;;21.55;10.43;;;2.10;99.90;;;;;;5111509;28;20046;-51
2021/05/03 03:32:16;;;;;;;21.88;13.00;;;2.10;99.90;;;;;;5103450;28;20288;-49
2021/05/03 03:34:42;;;;;;;28.85;11.30;;;2.10;99.90;;;;;;5109035;28;20027;-48
2021/05/03 03:37:07;;;;;;;18.58;9.73;;;2.10;99.90;;;;;;5109930;28;20447;-52
2021/05/03 03:39:33;;;;;;;22.25;9.80;;;2.10;99.90;;;;;;5107964;28;20485;-51
2021/05/03 03:41:58;;;;;;;18.60;10.27;;;2.10;99.90;;;;;;5110897;28;20015;-49
2021/05/03 03:44:24;;;;;;;22.63;10.25;;;2.10;99.90;;;;;;5107816;28;20070;-49
2021/05/03 03:46:50;;;;;;;24.13;10.90;;;2.10;99.90;;;;;;5101716;28;20109;-52
2021/05/03 03:49:16;;;;;;;21.63;9.65;;;2.10;99.90;;;;;;5103232;28;20507;-49
2021/05/03 03:51:42;;;;;;;21.33;10.30;;;2.10;99.90;;;;;;5106582;28;20028;-53
2021/05/03 03:54:07;;;;;;;21.33;10.52;;;2.00;99.90;;;;;;5104276;28;20028;-53
2021/05/03 03:56:33;;;;;;;25.75;10.18;;;2.10;99.90;;;;;;5098093;28;20055;-49
2021/05/03 03:58:58;;;;;;;20.13;10.30;;;2.00;99.90;;;;;;5109155;28;20085;-49
2021/05/03 04:01:24;;;;;;;21.35;10.73;;;2.00;99.90;;;;;;5100781;28;20027;-51
2021/05/03 04:03:54;;;;;;;22.75;11.52;;;2.00;99.90;;;;;;5106083;28;20504;-49
2021/05/03 04:11:37;;;;;;;24.98;11.10;;;1.90;99.90;;;;;;5111115;28;20024;-50
2021/05/03 04:27:24;;;;;;;24.20;13.35;;;1.70;99.90;;;;;;5114113;28;20548;-48
2021/05/03 04:29:50;;;;;;;19.90;11.20;;;1.70;99.90;;;;;;5107334;28;20027;-48
2021/05/03 04:32:15;;;;;;;32.47;13.30;;;1.70;99.90;;;;;;5112475;27;20020;-49
2021/05/03 04:34:41;;;;;;;36.25;13.30;;;1.80;99.90;;;;;;5112555;28;20023;-52
2021/05/03 04:37:06;;;;;;;27.98;12.15;;;1.80;99.90;;;;;;5110279;28;20027;-49
2021/05/03 04:39:32;;;;;;;27.83;12.73;;;1.80;99.90;;;;;;5113969;28;20036;-49
2021/05/03 04:41:58;;;;;;;22.80;11.00;;;1.80;99.90;;;;;;5113825;28;20027;-51
2021/05/03 04:44:23;;;;;;;28.15;12.30;;;1.80;99.90;;;;;;5111123;28;20031;-51
2021/05/03 04:46:49;;;;;;;26.58;13.32;;;1.90;99.90;;;;;;5112580;28;20084;-49
2021/05/03 04:49:14;;;;;;;25.98;13.30;;;2.00;99.90;;;;;;5102424;28;20019;-52
2021/05/03 04:51:40;;;;;;;25.70;13.82;;;2.10;99.90;;;;;;5112133;28;20039;-50
2021/05/03 04:54:05;;;;;;;30.48;13.73;;;2.20;99.90;;;;;;5108958;28;20404;-50
2021/05/03 04:56:31;;;;;;;28.10;13.25;;;2.20;99.90;;;;;;5113528;27;20594;-49
2021/05/03 04:58:56;;;;;;;27.60;14.50;;;2.30;99.90;;;;;;5112659;28;20039;-51
2021/05/03 05:01:22;;;;;;;23.90;13.50;;;2.40;99.90;;;;;;5105414;28;20074;-49
2021/05/03 05:03:47;;;;;;;22.17;13.02;;;2.50;99.90;;;;;;5106818;28;20062;-52
2021/05/03 05:06:13;;;;;;;20.83;11.57;;;2.60;99.90;;;;;;5109652;28;20107;-51
2021/05/03 05:08:38;;;;;;;22.83;12.35;;;2.70;99.90;;;;;;5111122;28;20110;-51
2021/05/03 05:11:04;;;;;;;21.13;11.48;;;2.90;99.90;;;;;;5109414;28;20118;-49
2021/05/03 05:13:29;;;;;;;20.77;12.70;;;3.00;99.90;;;;;;5104876;28;20023;-51
2021/05/03 05:15:55;;;;;;;24.80;13.45;;;3.20;99.90;;;;;;5113134;28;20590;-49
2021/05/03 05:18:21;;;;;;;20.55;11.30;;;3.40;99.90;;;;;;5105855;28;20020;-50
2021/05/03 05:20:46;;;;;;;19.17;11.82;;;3.60;99.90;;;;;;5112282;28;20023;-50
2021/05/03 05:23:12;;;;;;;25.52;11.98;;;3.80;99.90;;;;;;5111158;27;20030;-50
2021/05/03 05:25:37;;;;;;;27.05;10.65;;;3.90;99.90;;;;;;5103704;28;20378;-50
2021/05/03 05:28:03;;;;;;;18.52;10.18;;;4.10;99.90;;;;;;5107509;28;20425;-49
2021/05/03 05:30:29;;;;;;;24.35;13.40;;;4.30;99.90;;;;;;5110270;28;20446;-49
2021/05/03 05:32:55;;;;;;;18.20;10.77;;;4.50;99.90;;;;;;5109007;28;20497;-54
2021/05/03 05:35:20;;;;;;;18.40;10.38;;;4.60;99.90;;;;;;5111067;28;20432;-51
2021/05/03 05:37:46;;;;;;;16.92;9.52;;;4.80;99.90;;;;;;5110062;28;20516;-52
2021/05/03 05:40:11;;;;;;;24.67;10.70;;;4.90;99.90;;;;;;5111953;28;20024;-51
2021/05/03 05:42:37;;;;;;;15.90;9.90;;;5.00;99.90;;;;;;5106580;28;20023;-51
2021/05/03 05:45:04;;;;;;;22.38;11.00;;;5.10;99.90;;;;;;5111653;28;20032;-51
2021/05/03 05:47:30;;;;;;;18.20;9.93;;;5.20;99.90;;;;;;5104226;28;20035;-52
2021/05/03 05:49:55;;;;;;;18.92;11.40;;;5.40;99.90;;;;;;5106096;28;20055;-53
2021/05/03 05:52:21;;;;;;;25.02;11.90;;;5.40;99.90;;;;;;5101989;28;20556;-49
2021/05/03 05:54:47;;;;;;;16.15;9.00;;;5.50;99.90;;;;;;5103679;28;20114;-48
2021/05/03 05:57:13;;;;;;;17.00;9.82;;;5.60;99.90;;;;;;5108074;28;20393;-51
2021/05/03 05:59:38;;;;;;;20.05;9.40;;;5.60;99.90;;;;;;5104699;28;20157;-48
2021/05/03 06:02:04;;;;;;;20.92;9.95;;;5.70;99.90;;;;;;5102635;28;20029;-48
2021/05/03 06:04:32;;;;;;;23.17;10.77;;;5.80;99.90;;;;;;5104835;28;20035;-49
2021/05/03 06:06:57;;;;;;;15.82;8.88;;;5.90;99.90;;;;;;5108270;28;20027;-52
2021/05/03 06:09:23;;;;;;;16.33;8.98;;;6.00;99.90;;;;;;5102226;28;20499;-48
2021/05/03 06:11:48;;;;;;;16.17;8.82;;;6.00;99.90;;;;;;5108926;28;20649;-55
2021/05/03 06:14:14;;;;;;;17.98;9.55;;;6.10;99.90;;;;;;5105200;28;20026;-48
2021/05/03 06:16:39;;;;;;;25.10;9.85;;;6.00;99.90;;;;;;5112135;28;20038;-52
2021/05/03 06:19:05;;;;;;;16.90;9.55;;;6.10;99.90;;;;;;5105091;28;20030;-52
2021/05/03 06:21:31;;;;;;;14.77;8.75;;;6.00;99.90;;;;;;5108582;28;20066;-49
2021/05/03 06:23:57;;;;;;;22.17;9.25;;;6.10;99.90;;;;;;5103932;28;20055;-49
2021/05/03 06:26:22;;;;;;;20.85;8.82;;;6.10;99.90;;;;;;5107100;28;20519;-54
2021/05/03 06:28:48;;;;;;;16.92;9.05;;;6.10;99.90;;;;;;5111629;28;20038;-50
2021/05/03 06:31:13;;;;;;;16.45;8.52;;;6.10;99.90;;;;;;5096300;28;20023;-51
2021/05/03 06:33:39;;;;;;;17.58;8.68;;;6.10;99.90;;;;;;5098642;28;20032;-52
2021/05/03 06:36:05;;;;;;;17.17;9.10;;;6.20;99.90;;;;;;5104501;28;20490;-53
2021/05/03 06:38:31;;;;;;;17.77;8.93;;;6.30;99.90;;;;;;5111176;28;20435;-56
2021/05/03 06:40:56;;;;;;;19.17;9.38;;;6.40;99.90;;;;;;5111132;28;20102;-50
2021/05/03 06:43:22;;;;;;;17.65;7.80;;;6.40;99.90;;;;;;5107906;28;20024;-54
2021/05/03 06:45:47;;;;;;;10.57;7.00;;;6.50;99.90;;;;;;5111259;28;20035;-52
2021/05/03 06:48:13;;;;;;;16.40;8.02;;;6.60;99.90;;;;;;5110710;27;20019;-53
2021/05/03 06:50:45;;;;;;;13.43;7.70;;;6.70;99.90;;;;;;5110387;28;20123;-54
2021/05/03 06:53:12;;;;;;;13.52;8.52;;;6.80;99.90;;;;;;5107188;28;20427;-53
2021/05/03 06:55:37;;;;;;;17.25;8.60;;;6.90;99.90;;;;;;5109055;28;20031;-55
2021/05/03 06:58:03;;;;;;;14.10;8.02;;;6.90;99.90;;;;;;5110482;28;20038;-50
2021/05/03 07:00:29;;;;;;;16.20;7.93;;;6.90;99.90;;;;;;5108703;28;20103;-51
2021/05/03 07:02:54;;;;;;;15.73;8.75;;;7.00;99.90;;;;;;5108356;28;20061;-52
2021/05/03 07:05:20;;;;;;;15.63;8.68;;;7.00;99.90;;;;;;5108571;28;20080;-53
2021/05/03 07:07:45;;;;;;;13.82;7.25;;;7.10;99.90;;;;;;5108151;28;20027;-51
2021/05/03 07:10:13;;;;;;;14.05;7.50;;;7.10;99.90;;;;;;5106845;28;20019;-50
2021/05/03 07:12:43;;;;;;;17.92;8.18;;;7.20;99.90;;;;;;5110344;28;20036;-52
2021/05/03 07:15:10;;;;;;;11.02;6.72;;;7.40;99.90;;;;;;5109038;28;20028;-52
2021/05/03 07:17:35;;;;;;;14.20;7.03;;;7.50;99.90;;;;;;5107789;28;20032;-51
2021/05/03 07:20:01;;;;;;;10.27;6.10;;;7.60;99.90;;;;;;5106928;28;20042;-53
2021/05/03 07:22:27;;;;;;;15.48;6.57;;;7.80;99.90;;;;;;5103194;28;20020;-51
2021/05/03 07:24:52;;;;;;;12.63;6.57;;;7.90;99.90;;;;;;5105399;28;20049;-51
2021/05/03 07:27:18;;;;;;;13.90;6.97;;;8.00;99.90;;;;;;5104595;28;20032;-51
2021/05/03 07:29:44;;;;;;;13.20;5.72;;;8.10;99.90;;;;;;5105925;28;20032;-53
2021/05/03 07:32:09;;;;;;;10.48;6.28;;;8.20;99.90;;;;;;5108281;27;20027;-54
2021/05/03 07:34:35;;;;;;;17.95;6.85;;;8.20;99.90;;;;;;5107544;28;20032;-51
2021/05/03 07:37:02;;;;;;;15.13;6.30;;;8.30;99.90;;;;;;5107093;28;20032;-53
2021/05/03 07:39:28;;;;;;;11.68;5.93;;;8.40;99.90;;;;;;5102713;28;20011;-52
2021/05/03 07:41:54;;;;;;;12.65;5.78;;;8.50;99.90;;;;;;5099879;28;20378;-51
2021/05/03 07:44:21;;;;;;;12.75;4.82;;;8.70;99.90;;;;;;5106978;28;20092;-53
2021/05/03 07:46:46;;;;;;;8.98;5.63;;;8.70;99.90;;;;;;5105195;28;20028;-51
2021/05/03 07:49:12;;;;;;;19.83;6.47;;;8.80;99.90;;;;;;5107724;28;20103;-55
2021/05/03 07:51:38;;;;;;;11.90;5.50;;;8.90;99.90;;;;;;5106042;28;20057;-55
2021/05/03 07:54:03;;;;;;;16.27;6.43;;;9.00;99.90;;;;;;5105603;28;20023;-51
2021/05/03 07:56:31;;;;;;;15.88;5.28;;;9.10;99.90;;;;;;5105233;28;20020;-53
2021/05/03 07:58:57;;;;;;;15.90;5.75;;;9.20;99.90;;;;;;5108668;28;20537;-52
2021/05/03 08:01:23;;;;;;;17.83;8.20;;;9.30;99.90;;;;;;5105977;28;20027;-53
2021/05/03 08:03:48;;;;;;;11.77;5.70;;;9.50;99.90;;;;;;5106738;28;20080;-55
2021/05/03 08:06:15;;;;;;;10.57;4.80;;;9.60;99.90;;;;;;5106564;28;20016;-54
2021/05/03 08:08:41;;;;;;;14.77;5.95;;;9.70;99.90;;;;;;5108345;28;20157;-52
2021/05/03 08:11:07;;;;;;;14.82;6.38;;;9.80;99.90;;;;;;5105541;28;20031;-52
2021/05/03 08:13:33;;;;;;;12.93;5.60;;;10.00;99.90;;;;;;5105396;28;20507;-52
2021/05/03 08:16:02;;;;;;;9.23;4.72;;;10.10;99.90;;;;;;5107205;28;20026;-55
2021/05/03 08:18:28;;;;;;;10.25;4.50;;;10.10;99.90;;;;;;5106563;28;20556;-56
2021/05/03 08:20:57;;;;;;;23.10;8.45;;;10.10;99.90;;;;;;5106994;28;20019;-54
2021/05/03 08:23:23;;;;;;;10.57;4.80;;;10.20;99.90;;;;;;5101290;28;20028;-54
2021/05/03 08:25:52;;;;;;;15.48;5.00;;;10.40;99.90;;;;;;5107301;28;20027;-55
2021/05/03 08:28:18;;;;;;;7.07;3.63;;;10.50;99.90;;;;;;5107977;28;20414;-54
2021/05/03 08:30:44;;;;;;;7.85;4.15;;;10.60;99.90;;;;;;5106797;28;20400;-52
2021/05/03 08:33:10;;;;;;;8.68;5.25;;;10.60;99.90;;;;;;5102629;28;20084;-56
2021/05/03 08:35:36;;;;;;;24.05;8.93;;;10.60;99.90;;;;;;5100579;28;20023;-53
2021/05/03 08:38:03;;;;;;;10.73;3.65;;;10.70;99.90;;;;;;5105426;28;20034;-52
2021/05/03 08:40:29;;;;;;;7.90;4.43;;;10.80;99.90;;;;;;5108075;28;20031;-56
2021/05/03 08:42:56;;;;;;;7.20;3.65;;;10.90;99.90;;;;;;5108823;28;20081;-55
2021/05/03 08:45:23;;;;;;;10.90;5.13;;;11.00;99.90;;;;;;5106443;28;20550;-52
2021/05/03 08:53:18;;;;;;;7.55;3.55;;;11.30;99.90;;;;;;5109941;28;20040;-53
2021/05/03 08:55:44;;;;;;;9.57;4.47;;;11.40;99.90;;;;;;5110708;28;20098;-54
2021/05/03 08:58:11;;;;;;;5.20;3.00;;;11.50;99.90;;;;;;5106339;28;20051;-56
2021/05/03 09:00:37;;;;;;;8.82;4.00;;;11.70;99.90;;;;;;5107984;28;20037;-54
2021/05/03 09:03:08;;;;;;;13.25;4.38;;;11.90;99.90;;;;;;5104743;28;20103;-54
2021/05/03 09:05:34;;;;;;;9.68;4.38;;;12.10;99.90;;;;;;5109788;28;20397;-51
2021/05/03 09:08:00;;;;;;;10.75;4.75;;;12.20;99.90;;;;;;5110105;28;20031;-54
2021/05/03 09:10:26;;;;;;;9.02;4.10;;;12.20;99.90;;;;;;5107486;28;20142;-53
2021/05/03 09:12:52;;;;;;;8.60;3.63;;;12.30;99.90;;;;;;5110195;28;20032;-56
2021/05/03 09:15:25;;;;;;;4.80;3.30;;;12.60;99.90;;;;;;5110672;28;20111;-53
2021/05/03 09:17:57;;;;;;;8.70;4.72;;;12.50;99.90;;;;;;5107656;28;20121;-55
2021/05/03 09:20:25;;;;;;;10.75;4.20;;;12.60;99.90;;;;;;5090934;28;20024;-57
2021/05/03 09:22:55;;;;;;;9.32;3.97;;;12.70;99.90;;;;;;5105362;27;20019;-54
2021/05/03 09:25:52;;;;;;;9.40;4.95;;;12.90;99.90;;;;;;5109853;28;20023;-55
2021/05/03 09:28:28;;;;;;;24.63;4.97;;;13.10;99.90;;;;;;5109276;28;20118;-55
2021/05/03 09:30:56;;;;;;;6.63;4.38;;;13.10;99.90;;;;;;5100276;28;20073;-55
2021/05/03 09:33:32;;;;;;;7.88;4.72;;;13.00;99.90;;;;;;5105848;28;20039;-53
2021/05/03 09:36:00;;;;;;;8.55;4.28;;;13.00;99.90;;;;;;5108980;27;20393;-55
2021/05/03 09:38:34;;;;;;;5.93;4.50;;;13.00;99.90;;;;;;5108337;28;20023;-55
2021/05/03 09:41:21;;;;;;;10.40;5.43;;;13.20;99.90;;;;;;5106457;28;20453;-55
2021/05/03 09:44:04;;;;;;;8.65;5.18;;;13.20;99.80;;;;;;5105102;28;20027;-56
2021/05/03 09:46:40;;;;;;;11.50;5.47;;;13.40;99.30;;;;;;5110588;28;20509;-55
2021/05/03 09:49:09;;;;;;;9.10;4.75;;;13.50;99.60;;;;;;5106099;28;20027;-55
2021/05/03 09:51:42;;;;;;;7.90;4.85;;;13.40;99.90;;;;;;5106033;28;20024;-53
2021/05/03 09:54:12;;;;;;;8.15;5.28;;;13.30;99.80;;;;;;5105202;28;20036;-56
2021/05/03 09:57:04;;;;;;;10.13;5.40;;;13.50;99.90;;;;;;5107251;28;20392;-60
2021/05/03 09:59:49;;;;;;;11.63;4.75;;;13.70;99.10;;;;;;5108137;28;20024;-57
2021/05/03 10:02:27;;;;;;;8.63;4.53;;;13.60;99.70;;;;;;5106716;27;20091;-55
2021/05/03 10:05:39;;;;;;;10.07;5.13;;;13.40;99.30;;;;;;5108619;28;20035;-55
2021/05/03 10:10:36;;;;;;;10.02;4.75;;;13.30;99.00;;;;;;5059552;28;20051;-58
2021/05/03 10:13:03;;;;;;;7.20;4.65;;;13.20;99.10;;;;;;5067017;28;20036;-58
2021/05/03 10:15:28;;;;;;;7.20;4.72;;;13.30;98.40;;;;;;5069037;28;20640;-56
2021/05/03 10:17:57;;;;;;;7.65;4.35;;;13.40;98.50;;;;;;5070834;28;20029;-62
2021/05/03 10:20:26;;;;;;;6.80;4.80;;;13.50;97.90;;;;;;5050175;28;20025;-60
2021/05/03 10:22:53;;;;;;;8.10;4.70;;;13.60;97.70;;;;;;5028302;28;20044;-60
2021/05/03 10:25:19;;;;;;;8.35;4.68;;;14.20;97.30;;;;;;5058241;28;20025;-59
2021/05/03 10:27:50;;;;;;;8.65;4.70;;;14.60;96.30;;;;;;5048032;28;20035;-59
2021/05/03 10:30:19;;;;;;;13.65;4.65;;;14.40;95.90;;;;;;5046817;28;20044;-59
2021/05/03 10:33:02;;;;;;;9.70;4.78;;;14.00;95.90;;;;;;5045116;28;20091;-58
2021/05/03 10:35:34;;;;;;;7.82;4.68;;;13.70;96.30;;;;;;5040230;28;20451;-60
2021/05/03 10:38:00;;;;;;;7.53;5.13;;;13.60;96.30;;;;;;5043147;28;20437;-60
2021/05/03 10:40:28;;;;;;;8.52;4.93;;;13.70;96.80;;;;;;5046912;28;20024;-59
2021/05/03 10:43:07;;;;;;;14.02;4.95;;;13.70;96.70;;;;;;5042708;28;20065;-59
2021/05/03 10:46:07;;;;;;;7.28;4.30;;;13.90;96.00;;;;;;5046563;28;20443;-60
2021/05/03 10:54:39;;;;;;;9.63;3.95;;;14.20;95.20;;;;;;5040279;28;20043;-58
2021/05/03 10:57:06;;;;;;;6.72;4.28;;;14.30;95.20;;;;;;5049005;28;20049;-59
2021/05/03 10:59:57;;;;;;;7.68;4.07;;;14.10;93.50;;;;;;5026549;28;20025;-59
2021/05/03 11:02:44;;;;;;;7.32;4.10;;;14.00;93.80;;;;;;5039515;28;20136;-58
2021/05/03 11:05:14;;;;;;;5.95;3.60;;;14.10;93.10;;;;;;5044325;28;20048;-60
2021/05/03 11:08:04;;;;;;;7.78;4.32;;;14.20;92.90;;;;;;5047497;28;20025;-58
2021/05/03 11:11:08;;;;;;;6.57;4.28;;;14.60;92.60;;;;;;5044904;28;20107;-59
2021/05/03 11:13:43;;;;;;;7.88;4.07;;;14.70;91.70;;;;;;5047966;28;20115;-61
2021/05/03 11:16:27;;;;;;;5.22;3.70;;;14.60;92.40;;;;;;5047566;28;20024;-61
2021/05/03 11:18:55;;;;;;;7.10;3.75;;;14.40;91.00;;;;;;5045098;28;20021;-59
2021/05/03 11:21:45;;;;;;;8.07;3.85;;;14.40;91.10;;;;;;5041948;28;20120;-58
2021/05/03 11:24:43;;;;;;;5.93;3.42;;;14.50;91.20;;;;;;5046072;28;20140;-59
2021/05/03 11:27:32;;;;;;;5.75;2.92;;;14.80;91.40;;;;;;5043174;28;20394;-60
2021/05/03 11:30:02;;;;;;;5.32;2.90;;;15.60;93.50;;;;;;5044015;28;20119;-60
2021/05/03 11:32:38;;;;;;;4.80;3.53;;;16.10;90.00;;;;;;5041005;28;20021;-58
2021/05/03 11:35:24;;;;;;;6.68;3.50;;;15.90;87.80;;;;;;5046242;28;20451;-58
2021/05/03 11:46:25;;;;;;;5.75;4.18;;;14.90;83.60;;;;;;5045452;28;20048;-59
2021/05/03 11:48:55;;;;;;;8.68;4.18;;;14.50;86.90;;;;;;5045670;28;20032;-60
2021/05/03 11:51:21;;;;;;;6.68;5.13;;;14.30;90.20;;;;;;5047023;28;20036;-59
2021/05/03 11:53:48;;;;;;;8.23;5.20;;;14.10;91.40;;;;;;5047437;28;20104;-60
2021/05/03 11:56:30;;;;;;;11.93;5.93;;;14.60;91.80;;;;;;5043798;28;20029;-59
2021/05/03 11:58:58;;;;;;;6.95;4.85;;;14.70;91.30;;;;;;5047378;28;20036;-58
2021/05/03 12:01:26;;;;;;;9.25;4.80;;;15.00;91.60;;;;;;5041538;28;20474;-59
2021/05/03 12:03:57;;;;;;;10.23;4.50;;;15.30;90.30;;;;;;5043007;28;20064;-59
2021/05/03 12:06:38;;;;;;;9.80;4.95;;;15.70;90.20;;;;;;5045692;28;20029;-59
2021/05/03 12:09:14;;;;;;;7.10;4.03;;;15.80;89.50;;;;;;5059838;28;21243;-58
2021/05/03 12:11:58;;;;;;;9.77;3.38;;;15.80;86.10;;;;;;5045111;28;20463;-58
2021/05/03 12:14:45;;;;;;;6.97;4.28;;;15.60;88.70;;;;;;5047948;28;20091;-60
2021/05/03 12:17:23;;;;;;;8.75;4.68;;;15.20;85.30;;;;;;5045647;28;20529;-60
2021/05/03 12:19:54;;;;;;;8.77;3.97;;;15.20;85.90;;;;;;5044134;28;20487;-59
2021/05/03 12:22:21;;;;;;;6.82;4.30;;;15.40;85.40;;;;;;5048217;28;20116;-59
2021/05/03 12:24:58;;;;;;;8.23;4.75;;;15.90;85.60;;;;;;5051209;28;20029;-59
2021/05/03 12:27:28;;;;;;;8.10;3.50;;;16.30;83.80;;;;;;5051462;28;20032;-59
2021/05/03 12:29:57;;;;;;;7.47;4.20;;;16.90;85.40;;;;;;5048459;28;20122;-59
2021/05/03 12:32:41;;;;;;;10.27;4.28;;;16.60;80.40;;;;;;5065590;28;20025;-59
2021/05/03 12:35:09;;;;;;;5.18;3.53;;;16.30;81.40;;;;;;5049369;28;20028;-58
2021/05/03 12:37:38;;;;;;;6.03;3.78;;;16.10;85.30;;;;;;5051683;28;20017;-59
2021/05/03 12:40:14;;;;;;;6.50;3.85;;;15.70;85.80;;;;;;5049904;28;20071;-59
2021/05/03 12:42:52;;;;;;;6.18;4.57;;;15.40;85.40;;;;;;5048106;28;20031;-61
2021/05/03 12:45:41;;;;;;;13.80;3.90;;;15.30;84.90;;;;;;5049053;28;20032;-59
2021/05/03 12:48:16;;;;;;;4.72;3.00;;;15.30;84.30;;;;;;5051497;28;20102;-58
2021/05/03 12:50:51;;;;;;;8.27;3.83;;;14.80;85.70;;;;;;5031323;28;21068;-58
2021/05/03 12:53:32;;;;;;;;;;;15.10;85.90;;;;;;5047647;28;20494;-55
2021/05/03 12:56:21;;;;;;;4.95;3.33;;;15.50;84.70;;;;;;5047866;28;19954;-58
2021/05/03 12:59:17;;;;;;;4.60;3.53;;;15.90;85.70;;;;;;5050764;28;20032;-59
2021/05/03 13:02:02;;;;;;;5.20;3.88;;;15.90;83.10;;;;;;5048274;28;20100;-58
2021/05/03 13:07:15;;;;;;;4.85;3.55;;;16.10;83.50;;;;;;5050779;28;19931;-58
2021/05/03 13:29:17;;;;;;;8.23;4.20;;;15.30;84.00;;;;;;5052253;28;20029;-57
2021/05/03 13:31:45;;;;;;;7.75;5.18;;;15.20;83.60;;;;;;5050237;28;20029;-56
2021/05/03 13:34:14;;;;;;;4.07;3.15;;;15.10;85.10;;;;;;5049012;28;20039;-58
2021/05/03 13:36:52;;;;;;;6.57;3.63;;;15.00;85.60;;;;;;5048748;28;20040;-60
2021/05/03 13:39:38;;;;;;;6.35;3.70;;;14.80;86.30;;;;;;5051355;28;20399;-60
2021/05/03 13:42:10;;;;;;;8.38;3.70;;;14.70;87.70;;;;;;5048922;28;20029;-59
2021/05/03 13:44:39;;;;;;;6.32;3.75;;;14.60;87.10;;;;;;5051399;28;20117;-57
2021/05/03 13:47:06;;;;;;;4.63;2.95;;;14.80;88.10;;;;;;5033078;28;20056;-59
2021/05/03 13:49:33;;;;;;;4.32;3.20;;;15.00;87.00;;;;;;5048305;28;20029;-59
2021/05/03 13:52:00;;;;;;;4.28;3.15;;;15.30;87.30;;;;;;5051273;28;20037;-59
2021/05/03 13:54:28;;;;;;;6.03;3.83;;;15.20;85.00;;;;;;5050027;28;20131;-58
2021/05/03 13:56:58;;;;;;;4.03;2.72;;;15.40;87.20;;;;;;5052030;28;20029;-58
2021/05/03 13:59:24;;;;;;;4.22;3.08;;;15.50;85.40;;;;;;5049896;28;20033;-57